createdAt,value
2023-04-30T00:02:02.439Z,9.26
2023-04-30T00:04:29.096Z,9.34
2023-04-30T00:06:55.845Z,9.38
2023-04-30T00:09:22.539Z,9.20
2023-04-30T00:11:49.158Z,9.19
2023-04-30T00:14:16.507Z,9.34
2023-04-30T00:16:43.326Z,9.27
2023-04-30T00:19:10.505Z,9.22
2023-04-30T00:21:37.198Z,9.25
2023-04-30T00:24:04.334Z,9.14
2023-04-30T00:26:31.130Z,9.09
2023-04-30T00:28:57.966Z,9.02
2023-04-30T00:31:24.780Z,9.05
2023-04-30T00:33:52.030Z,9.03
2023-04-30T00:36:18.716Z,8.75
2023-04-30T00:38:45.419Z,8.98
2023-04-30T00:41:12.439Z,8.91
2023-04-30T00:43:39.110Z,8.68
2023-04-30T00:46:06.892Z,8.74
2023-04-30T00:48:33.770Z,8.98
2023-04-30T00:51:03.056Z,9.04
2023-04-30T00:53:29.841Z,8.98
2023-04-30T00:55:57.183Z,8.92
2023-04-30T00:58:24.151Z,8.92
2023-04-30T01:00:51.260Z,8.93
2023-04-30T01:03:18.039Z,8.89
2023-04-30T01:05:44.839Z,8.74
2023-04-30T01:08:11.925Z,8.79
2023-04-30T01:11:17.620Z,8.93
2023-04-30T01:13:58.615Z,9.02
2023-04-30T01:16:40.328Z,9.05
2023-04-30T01:19:17.863Z,8.85
2023-04-30T01:21:45.430Z,8.88
2023-04-30T01:24:52.132Z,8.90
2023-04-30T01:27:32.150Z,8.81
2023-04-30T01:30:01.948Z,8.72
2023-04-30T01:32:28.706Z,8.75
2023-04-30T01:34:55.493Z,8.78
2023-04-30T01:37:29.334Z,8.89
2023-04-30T01:40:07.996Z,8.77
2023-04-30T01:42:49.980Z,8.80
2023-04-30T01:45:25.003Z,8.92
2023-04-30T01:48:02.129Z,9.03
2023-04-30T01:50:28.929Z,8.92
2023-04-30T01:52:59.836Z,8.88
2023-04-30T01:55:43.704Z,9.04
2023-04-30T01:58:13.096Z,8.95
2023-04-30T02:00:39.940Z,8.89
2023-04-30T02:03:07.263Z,8.90
2023-04-30T02:05:34.393Z,8.87
2023-04-30T02:08:01.092Z,8.85
2023-04-30T02:10:29.628Z,8.81
2023-04-30T02:12:56.563Z,8.66
2023-04-30T02:15:23.433Z,8.57
2023-04-30T02:17:50.627Z,8.61
2023-04-30T02:20:17.520Z,8.74
2023-04-30T02:22:44.195Z,8.78
2023-04-30T02:25:12.720Z,8.71
2023-04-30T02:27:39.776Z,8.79
2023-04-30T02:30:07.206Z,8.64
2023-04-30T02:32:33.937Z,8.54
2023-04-30T02:35:00.987Z,8.45
2023-04-30T02:37:27.652Z,8.59
2023-04-30T02:39:54.785Z,8.71
2023-04-30T02:42:21.933Z,8.77
2023-04-30T02:44:48.780Z,8.58
2023-04-30T02:47:15.502Z,8.71
2023-04-30T02:49:42.180Z,8.83
2023-04-30T02:52:10.101Z,8.73
2023-04-30T02:54:37.288Z,8.61
2023-04-30T02:57:04.394Z,8.41
2023-04-30T02:59:31.173Z,8.11
2023-04-30T03:01:57.936Z,8.12
2023-04-30T03:04:24.716Z,7.93
2023-04-30T03:06:51.409Z,7.69
2023-04-30T03:09:18.264Z,7.60
2023-04-30T03:11:44.954Z,7.36
2023-04-30T03:14:11.665Z,7.22
2023-04-30T03:16:38.469Z,6.91
2023-04-30T03:19:05.100Z,6.80
2023-04-30T03:21:32.736Z,6.97
2023-04-30T03:23:59.431Z,7.16
2023-04-30T03:26:26.198Z,7.07
2023-04-30T03:28:55.329Z,6.96
2023-04-30T03:31:22.140Z,6.99
2023-04-30T03:33:48.900Z,6.91
2023-04-30T03:36:15.873Z,6.95
2023-04-30T03:38:43.080Z,6.95
2023-04-30T03:41:09.932Z,7.07
2023-04-30T03:43:38.061Z,7.22
2023-04-30T03:46:05.096Z,7.24
2023-04-30T03:48:31.935Z,7.30
2023-04-30T03:50:58.627Z,7.18
2023-04-30T03:53:26.861Z,7.29
2023-04-30T03:55:54.936Z,7.27
2023-04-30T03:58:22.308Z,7.20
2023-04-30T04:00:49.217Z,7.16
2023-04-30T04:03:16.602Z,7.32
2023-04-30T04:05:43.338Z,7.74
2023-04-30T04:08:11.047Z,7.91
2023-04-30T04:10:39.056Z,7.94
2023-04-30T04:13:06.724Z,7.99
2023-04-30T04:15:34.228Z,8.16
2023-04-30T04:18:01.105Z,8.33
2023-04-30T04:20:30.051Z,8.39
2023-04-30T04:22:57.372Z,8.32
2023-04-30T04:25:25.479Z,8.63
2023-04-30T04:27:52.596Z,8.83
2023-04-30T04:30:19.885Z,9.05
2023-04-30T04:32:48.606Z,9.21
2023-04-30T04:35:16.116Z,9.34
2023-04-30T04:37:43.008Z,9.19
2023-04-30T04:40:12.936Z,9.26
2023-04-30T04:42:39.838Z,9.38
2023-04-30T04:45:15.907Z,9.45
2023-04-30T04:47:42.710Z,9.55
2023-04-30T04:50:10.036Z,9.65
2023-04-30T04:52:37.015Z,9.70
2023-04-30T04:55:04.088Z,9.54
2023-04-30T04:57:31.010Z,9.59
2023-04-30T04:59:58.101Z,9.76
2023-04-30T05:02:25.098Z,9.91
2023-04-30T05:04:51.937Z,9.99
2023-04-30T05:07:18.925Z,9.85
2023-04-30T05:09:49.144Z,10.02
2023-04-30T05:12:16.001Z,10.22
2023-04-30T05:14:43.296Z,10.31
2023-04-30T05:17:10.098Z,10.44
2023-04-30T05:19:36.922Z,10.19
2023-04-30T05:22:04.598Z,10.25
2023-04-30T05:24:31.487Z,10.12
2023-04-30T05:26:58.534Z,10.32
2023-04-30T05:29:25.454Z,10.38
2023-04-30T05:31:52.317Z,10.45
2023-04-30T05:34:18.995Z,10.66
2023-04-30T05:36:45.844Z,10.75
2023-04-30T05:39:12.588Z,10.74
2023-04-30T05:41:39.440Z,10.81
2023-04-30T05:44:06.647Z,10.69
2023-04-30T05:46:33.633Z,10.88
2023-04-30T05:49:00.333Z,11.18
2023-04-30T05:51:27.993Z,11.37
2023-04-30T05:53:54.777Z,11.51
2023-04-30T05:56:21.549Z,11.38
2023-04-30T05:58:48.244Z,11.72
2023-04-30T06:01:15.738Z,11.48
2023-04-30T06:03:42.466Z,11.69
2023-04-30T06:06:09.409Z,11.73
2023-04-30T06:08:36.473Z,11.89
2023-04-30T06:11:05.231Z,12.18
2023-04-30T06:13:32.795Z,12.33
2023-04-30T06:15:59.648Z,12.59
2023-04-30T06:18:26.289Z,12.73
2023-04-30T06:20:53.057Z,12.49
2023-04-30T06:23:19.647Z,12.64
2023-04-30T06:25:46.391Z,12.73
2023-04-30T06:28:17.095Z,12.85
2023-04-30T06:30:43.974Z,13.10
2023-04-30T06:33:10.722Z,13.37
2023-04-30T06:35:37.563Z,13.20
2023-04-30T06:38:04.301Z,13.54
2023-04-30T06:40:31.102Z,13.33
2023-04-30T06:42:57.781Z,13.59
2023-04-30T06:45:24.423Z,13.62
2023-04-30T06:47:52.089Z,13.14
2023-04-30T06:50:19.439Z,13.66
2023-04-30T06:52:46.148Z,14.19
2023-04-30T06:55:12.832Z,14.67
2023-04-30T06:57:40.146Z,14.14
2023-04-30T07:00:07.733Z,14.11
2023-04-30T07:02:34.772Z,14.23
2023-04-30T07:05:01.620Z,14.65
2023-04-30T07:07:28.460Z,15.14
2023-04-30T07:09:55.469Z,15.02
2023-04-30T07:12:22.733Z,15.26
2023-04-30T07:14:49.564Z,15.23
2023-04-30T07:17:16.526Z,15.30
2023-04-30T07:19:43.692Z,15.37
2023-04-30T07:22:10.358Z,15.35
2023-04-30T07:24:37.056Z,15.21
2023-04-30T07:27:04.404Z,15.18
2023-04-30T07:29:31.805Z,15.14
2023-04-30T07:31:58.603Z,15.83
2023-04-30T07:34:25.482Z,16.25
2023-04-30T07:36:52.290Z,16.17
2023-04-30T07:39:19.292Z,16.15
2023-04-30T07:41:46.200Z,16.84
2023-04-30T07:44:12.920Z,16.42
2023-04-30T07:46:39.782Z,16.52
2023-04-30T07:49:06.646Z,16.85
2023-04-30T07:51:34.190Z,17.19
2023-04-30T07:54:01.064Z,17.46
2023-04-30T07:56:27.778Z,17.68
2023-04-30T07:58:54.397Z,18.55
2023-04-30T08:01:21.414Z,18.24
2023-04-30T08:03:48.231Z,17.68
2023-04-30T08:06:15.021Z,18.13
2023-04-30T08:08:41.657Z,18.25
2023-04-30T08:11:08.343Z,19.35
2023-04-30T08:13:34.978Z,19.49
2023-04-30T08:16:02.031Z,18.87
2023-04-30T08:18:30.187Z,19.06
2023-04-30T08:20:56.966Z,18.48
2023-04-30T08:23:23.635Z,17.87
2023-04-30T08:25:50.352Z,18.59
2023-04-30T08:28:17.896Z,18.65
2023-04-30T08:30:44.946Z,18.49
2023-04-30T08:33:12.010Z,18.92
2023-04-30T08:35:38.729Z,19.74
2023-04-30T08:38:05.912Z,19.56
2023-04-30T08:40:50.367Z,19.53
2023-04-30T08:43:19.349Z,19.39
2023-04-30T08:45:46.408Z,19.88
2023-04-30T08:48:16.484Z,20.58
2023-04-30T08:50:43.590Z,20.01
2023-04-30T08:56:06.121Z,20.05
2023-04-30T08:58:32.843Z,20.44
2023-04-30T09:01:00.355Z,20.65
2023-04-30T09:03:28.644Z,21.34
2023-04-30T09:05:56.252Z,20.86
2023-04-30T09:08:47.082Z,21.26
2023-04-30T09:11:28.379Z,21.38
2023-04-30T09:13:57.325Z,21.30
2023-04-30T09:16:25.582Z,21.79
2023-04-30T09:18:53.021Z,20.44
2023-04-30T09:21:33.534Z,20.75
2023-04-30T09:24:03.031Z,21.07
2023-04-30T09:26:35.315Z,21.34
2023-04-30T09:29:07.935Z,21.75
2023-04-30T09:31:38.942Z,20.68
2023-04-30T09:34:09.004Z,21.45
2023-04-30T09:36:36.044Z,21.85
2023-04-30T09:39:15.675Z,22.10
2023-04-30T09:41:43.186Z,22.49
2023-04-30T09:44:28.184Z,22.81
2023-04-30T09:46:57.710Z,23.09
2023-04-30T09:49:25.238Z,22.23
2023-04-30T09:52:01.935Z,22.27
2023-04-30T09:54:30.176Z,22.98
2023-04-30T09:56:59.277Z,22.98
2023-04-30T09:59:33.079Z,22.70
2023-04-30T10:02:01.562Z,23.05
2023-04-30T10:04:34.133Z,22.69
2023-04-30T10:07:04.735Z,23.16
2023-04-30T10:09:40.066Z,23.45
2023-04-30T10:12:14.115Z,23.68
2023-04-30T10:14:48.200Z,23.86
2023-04-30T10:17:18.277Z,23.98
2023-04-30T10:19:49.627Z,23.84
2023-04-30T10:22:16.511Z,22.83
2023-04-30T10:24:44.950Z,22.79
2023-04-30T10:27:12.173Z,23.09
2023-04-30T10:29:38.872Z,21.52
2023-04-30T10:32:07.702Z,21.52
2023-04-30T10:34:53.616Z,22.50
2023-04-30T10:38:03.501Z,23.31
2023-04-30T10:40:37.229Z,22.94
2023-04-30T10:43:04.236Z,23.43
2023-04-30T10:45:47.377Z,23.17
2023-04-30T10:48:16.747Z,23.81
2023-04-30T10:50:46.766Z,23.58
2023-04-30T10:53:18.969Z,23.21
2023-04-30T10:55:53.768Z,23.32
2023-04-30T10:58:30.807Z,23.43
2023-04-30T11:01:12.892Z,23.75
2023-04-30T11:03:44.307Z,23.20
2023-04-30T11:06:15.239Z,23.50
2023-04-30T11:08:46.795Z,24.14
2023-04-30T11:11:21.345Z,24.04
2023-04-30T11:13:59.796Z,24.42
2023-04-30T11:16:31.418Z,24.06
2023-04-30T11:19:09.467Z,23.64
2023-04-30T11:21:41.734Z,23.10
2023-04-30T11:24:08.648Z,22.59
2023-04-30T11:27:03.730Z,23.27
2023-04-30T11:29:31.830Z,23.18
2023-04-30T11:32:01.386Z,22.36
2023-04-30T11:34:29.084Z,22.39
2023-04-30T11:36:59.444Z,21.82
2023-04-30T11:39:28.602Z,21.77
2023-04-30T11:41:56.008Z,22.11
2023-04-30T11:44:24.139Z,22.71
2023-04-30T11:46:51.304Z,23.44
2023-04-30T11:49:18.203Z,23.64
2023-04-30T11:51:50.159Z,23.95
2023-04-30T11:54:17.634Z,23.64
2023-04-30T11:56:48.771Z,23.17
2023-04-30T11:59:16.831Z,22.82
2023-04-30T12:01:44.490Z,22.58
2023-04-30T12:04:11.764Z,22.77
2023-04-30T12:06:38.590Z,22.61
2023-04-30T12:09:07.405Z,23.17
2023-04-30T12:11:35.284Z,23.87
2023-04-30T12:14:03.642Z,24.39
2023-04-30T12:16:40.927Z,24.50
2023-04-30T12:19:07.842Z,24.23
2023-04-30T12:21:34.830Z,24.45
2023-04-30T12:24:03.350Z,23.97
2023-04-30T12:26:38.878Z,24.03
2023-04-30T12:29:09.155Z,24.32
2023-04-30T12:31:37.486Z,25.24
2023-04-30T12:34:09.580Z,24.91
2023-04-30T12:36:41.602Z,25.49
2023-04-30T12:39:18.539Z,25.32
2023-04-30T12:41:47.924Z,25.83
2023-04-30T12:44:25.612Z,26.22
2023-04-30T12:46:57.760Z,26.37
2023-04-30T12:49:29.196Z,25.18
2023-04-30T12:52:01.424Z,24.14
2023-04-30T12:54:30.080Z,23.42
2023-04-30T12:57:01.438Z,23.10
2023-04-30T12:59:29.826Z,22.91
2023-04-30T13:02:14.939Z,23.05
2023-04-30T13:04:43.048Z,22.67
2023-04-30T13:07:10.497Z,22.43
2023-04-30T13:09:38.118Z,21.65
2023-04-30T13:12:05.183Z,21.29
2023-04-30T13:14:32.566Z,21.28
2023-04-30T13:16:59.833Z,21.27
2023-04-30T13:19:27.000Z,20.82
2023-04-30T13:21:53.893Z,20.70
2023-04-30T13:24:20.769Z,20.01
2023-04-30T13:26:48.345Z,19.42
2023-04-30T13:29:15.198Z,19.12
2023-04-30T13:31:42.565Z,18.74
2023-04-30T13:34:10.290Z,18.32
2023-04-30T13:36:37.371Z,17.98
2023-04-30T13:39:05.047Z,17.79
2023-04-30T13:41:32.114Z,17.39
2023-04-30T13:44:00.228Z,16.69
2023-04-30T13:46:27.306Z,16.40
2023-04-30T13:48:54.270Z,17.32
2023-04-30T13:51:21.441Z,19.23
2023-04-30T13:53:48.149Z,19.54
2023-04-30T13:56:15.601Z,19.68
2023-04-30T13:58:42.545Z,19.60
2023-04-30T14:01:10.608Z,19.80
2023-04-30T14:03:37.609Z,19.04
2023-04-30T14:06:05.968Z,19.71
2023-04-30T14:08:34.040Z,19.34
2023-04-30T14:11:01.192Z,18.53
2023-04-30T14:13:27.906Z,18.63
2023-04-30T14:15:56.471Z,19.28
2023-04-30T14:18:23.716Z,19.75
2023-04-30T14:20:51.056Z,20.04
2023-04-30T14:23:17.896Z,20.35
2023-04-30T14:25:44.668Z,19.67
2023-04-30T14:28:12.218Z,19.07
2023-04-30T14:30:39.043Z,18.42
2023-04-30T14:33:06.186Z,17.98
2023-04-30T14:35:33.754Z,17.53
2023-04-30T14:38:00.479Z,17.50
2023-04-30T14:40:27.352Z,17.81
2023-04-30T14:42:53.992Z,17.92
2023-04-30T14:45:20.971Z,17.96
2023-04-30T14:47:47.986Z,18.13
2023-04-30T14:50:15.015Z,18.17
2023-04-30T14:52:42.238Z,18.19
2023-04-30T14:55:09.285Z,18.22
2023-04-30T14:57:36.723Z,18.21
2023-04-30T15:00:04.241Z,18.10
2023-04-30T15:02:31.121Z,18.14
2023-04-30T15:04:58.028Z,18.17
2023-04-30T15:07:24.678Z,18.27
2023-04-30T15:09:52.929Z,18.39
2023-04-30T15:12:20.320Z,18.50
2023-04-30T15:14:47.086Z,18.79
2023-04-30T15:17:14.009Z,18.50
2023-04-30T15:19:40.815Z,18.73
2023-04-30T15:22:08.127Z,18.74
2023-04-30T15:24:35.882Z,18.89
2023-04-30T15:27:02.648Z,18.81
2023-04-30T15:29:29.459Z,18.86
2023-04-30T15:31:56.843Z,18.96
2023-04-30T15:34:24.047Z,19.11
2023-04-30T15:36:51.096Z,19.08
2023-04-30T15:39:19.275Z,19.15
2023-04-30T15:41:46.008Z,19.20
2023-04-30T15:44:12.682Z,18.96
2023-04-30T15:46:39.536Z,19.29
2023-04-30T15:49:06.488Z,19.35
2023-04-30T15:51:34.271Z,18.89
2023-04-30T15:54:01.121Z,18.88
2023-04-30T15:56:28.641Z,18.78
2023-04-30T15:58:56.112Z,18.81
2023-04-30T16:01:23.702Z,18.81
2023-04-30T16:03:50.776Z,18.69
2023-04-30T16:06:18.102Z,18.71
2023-04-30T16:08:46.468Z,18.83
2023-04-30T16:11:13.179Z,19.11
2023-04-30T16:13:40.394Z,19.17
2023-04-30T16:16:08.965Z,18.96
2023-04-30T16:18:36.012Z,18.97
2023-04-30T16:21:03.105Z,18.98
2023-04-30T16:23:29.856Z,18.91
2023-04-30T16:25:57.050Z,18.91
2023-04-30T16:28:24.520Z,18.85
2023-04-30T16:30:51.532Z,18.93
2023-04-30T16:33:18.232Z,19.07
2023-04-30T16:35:45.019Z,18.87
2023-04-30T16:38:11.832Z,18.90
2023-04-30T16:40:38.551Z,18.78
2023-04-30T16:43:06.326Z,18.81
2023-04-30T16:45:33.575Z,18.81
2023-04-30T16:48:00.588Z,18.75
2023-04-30T16:50:27.873Z,18.71
2023-04-30T16:52:54.778Z,18.57
2023-04-30T16:55:21.863Z,18.51
2023-04-30T16:57:48.917Z,18.11
2023-04-30T17:00:17.030Z,18.08
2023-04-30T17:02:49.194Z,17.88
2023-04-30T17:05:16.059Z,17.74
2023-04-30T17:07:44.463Z,17.67
2023-04-30T17:10:12.817Z,17.56
2023-04-30T17:12:40.340Z,17.53
2023-04-30T17:15:07.779Z,17.53
2023-04-30T17:17:34.670Z,17.36
2023-04-30T17:20:01.458Z,17.54
2023-04-30T17:22:28.236Z,17.66
2023-04-30T17:24:55.167Z,17.63
2023-04-30T17:27:22.048Z,17.58
2023-04-30T17:29:48.707Z,17.62
2023-04-30T17:32:17.723Z,17.53
2023-04-30T17:34:44.817Z,17.29
2023-04-30T17:37:11.504Z,17.29
2023-04-30T17:39:38.311Z,17.24
2023-04-30T17:42:05.634Z,17.35
2023-04-30T17:44:33.796Z,17.54
2023-04-30T17:47:00.487Z,17.45
2023-04-30T17:49:28.005Z,17.42
2023-04-30T17:51:54.726Z,17.38
2023-04-30T17:54:21.523Z,17.16
2023-04-30T17:56:48.599Z,17.31
2023-04-30T17:59:15.913Z,17.17
2023-04-30T18:01:42.792Z,16.89
2023-04-30T18:04:09.719Z,16.81
2023-04-30T18:06:36.599Z,16.86
2023-04-30T18:09:04.322Z,16.99
2023-04-30T18:11:31.247Z,17.10
2023-04-30T18:13:58.665Z,17.06
2023-04-30T18:16:25.539Z,16.85
2023-04-30T18:18:52.338Z,16.90
2023-04-30T18:21:19.186Z,16.78
2023-04-30T18:23:46.157Z,16.73
2023-04-30T18:26:13.069Z,16.64
2023-04-30T18:28:39.819Z,16.58
2023-04-30T18:31:06.601Z,16.52
2023-04-30T18:33:33.704Z,16.53
2023-04-30T18:36:05.298Z,16.52
2023-04-30T18:38:32.511Z,16.29
2023-04-30T18:41:00.115Z,16.24
2023-04-30T18:43:26.820Z,16.07
2023-04-30T18:45:53.660Z,16.01
2023-04-30T18:48:22.889Z,16.10
2023-04-30T18:50:50.470Z,16.26
2023-04-30T18:53:18.103Z,16.27
2023-04-30T18:55:45.641Z,16.20
2023-04-30T18:58:12.493Z,16.04
2023-04-30T19:00:43.222Z,16.01
2023-04-30T19:03:10.408Z,16.03
2023-04-30T19:05:37.832Z,15.96
2023-04-30T19:08:04.728Z,15.87
2023-04-30T19:10:31.552Z,15.62
2023-04-30T19:12:58.359Z,15.69
2023-04-30T19:15:25.752Z,15.75
2023-04-30T19:17:52.556Z,15.58
2023-04-30T19:20:19.358Z,15.60
2023-04-30T19:22:46.538Z,15.62
2023-04-30T19:25:14.043Z,15.63
2023-04-30T19:27:41.102Z,15.74
2023-04-30T19:30:08.436Z,15.73
2023-04-30T19:32:35.456Z,15.63
2023-04-30T19:35:02.253Z,15.67
2023-04-30T19:37:29.494Z,15.76
2023-04-30T19:39:56.552Z,15.69
2023-04-30T19:42:23.503Z,15.67
2023-04-30T19:44:53.256Z,15.57
2023-04-30T19:47:20.090Z,15.30
2023-04-30T19:49:47.552Z,15.39
2023-04-30T19:52:14.922Z,15.44
2023-04-30T19:54:48.536Z,15.43
2023-04-30T19:57:15.406Z,15.38
2023-04-30T19:59:42.148Z,15.50
2023-04-30T20:02:09.755Z,15.56
2023-04-30T20:04:37.390Z,15.45
2023-04-30T20:07:04.511Z,15.44
2023-04-30T20:09:31.195Z,15.40
2023-04-30T20:11:57.894Z,15.48
2023-04-30T20:14:24.802Z,15.34
2023-04-30T20:16:55.125Z,15.44
2023-04-30T20:19:22.493Z,15.39
2023-04-30T20:21:49.610Z,15.51
2023-04-30T20:24:16.499Z,15.35
2023-04-30T20:26:43.705Z,14.80
2023-04-30T20:29:10.622Z,14.57
2023-04-30T20:31:37.842Z,14.47
2023-04-30T20:34:05.015Z,14.50
2023-04-30T20:36:32.515Z,14.22
2023-04-30T20:38:59.309Z,13.97
2023-04-30T20:41:26.655Z,13.82
2023-04-30T20:43:54.191Z,13.78
2023-04-30T20:46:22.989Z,13.76
2023-04-30T20:48:49.854Z,13.65
2023-04-30T20:51:16.498Z,13.54
2023-04-30T20:53:43.209Z,13.48
2023-04-30T20:56:09.892Z,13.58
2023-04-30T20:58:37.011Z,13.76
2023-04-30T21:01:04.089Z,13.94
2023-04-30T21:03:30.804Z,14.07
2023-04-30T21:05:57.620Z,13.98
2023-04-30T21:08:24.429Z,14.06
2023-04-30T21:10:51.225Z,14.22
2023-04-30T21:13:17.932Z,14.22
2023-04-30T21:15:45.578Z,14.19
2023-04-30T21:18:12.408Z,14.28
2023-04-30T21:20:39.148Z,14.23
2023-04-30T21:23:05.820Z,14.26
2023-04-30T21:25:32.444Z,14.21
2023-04-30T21:27:59.186Z,14.12
2023-04-30T21:30:26.669Z,13.71
2023-04-30T21:32:58.482Z,13.61
2023-04-30T21:35:25.918Z,13.74
2023-04-30T21:37:52.641Z,13.71
2023-04-30T21:40:19.349Z,13.77
2023-04-30T21:42:46.063Z,13.72
2023-04-30T21:45:13.359Z,13.88
2023-04-30T21:47:40.318Z,13.82
2023-04-30T21:50:07.861Z,13.76
2023-04-30T21:52:34.713Z,13.46
2023-04-30T21:55:01.505Z,13.22
2023-04-30T21:57:28.138Z,13.31
2023-04-30T21:59:55.126Z,12.95
2023-04-30T22:02:24.172Z,12.83
2023-04-30T22:04:51.479Z,12.69
2023-04-30T22:07:18.383Z,12.66
2023-04-30T22:09:45.673Z,12.53
2023-04-30T22:12:12.837Z,12.47
2023-04-30T22:14:39.590Z,12.42
2023-04-30T22:17:06.636Z,12.42
2023-04-30T22:19:33.272Z,12.59
2023-04-30T22:22:00.163Z,12.66
2023-04-30T22:24:26.799Z,12.69
2023-04-30T22:26:53.498Z,12.79
2023-04-30T22:29:20.538Z,12.82
2023-04-30T22:31:47.652Z,12.77
2023-04-30T22:34:18.077Z,12.70
2023-04-30T22:36:46.185Z,12.79
2023-04-30T22:39:13.454Z,12.75
2023-04-30T22:41:40.669Z,12.78
2023-04-30T22:44:07.757Z,13.01
2023-04-30T22:46:36.866Z,13.12
2023-04-30T22:49:03.866Z,13.16
2023-04-30T22:51:31.797Z,13.03
2023-04-30T22:53:58.850Z,12.77
2023-04-30T22:56:25.619Z,12.68
2023-04-30T22:58:52.431Z,12.32
2023-04-30T23:01:20.250Z,12.34
2023-04-30T23:03:47.373Z,12.39
2023-04-30T23:06:14.634Z,12.21
2023-04-30T23:08:41.449Z,12.11
2023-04-30T23:11:08.221Z,12.29
2023-04-30T23:13:35.173Z,12.27
2023-04-30T23:16:05.685Z,12.25
2023-04-30T23:18:32.510Z,12.28
2023-04-30T23:20:59.320Z,12.17
2023-04-30T23:23:26.628Z,12.22
2023-04-30T23:25:53.572Z,12.34
2023-04-30T23:28:20.460Z,12.22
2023-04-30T23:30:51.023Z,12.00
2023-04-30T23:33:18.508Z,11.82
2023-04-30T23:35:45.954Z,11.93
2023-04-30T23:38:13.663Z,12.08
2023-04-30T23:40:42.154Z,12.17
2023-04-30T23:43:09.731Z,12.12
2023-04-30T23:45:36.480Z,12.02
2023-04-30T23:48:03.285Z,12.03
2023-04-30T23:50:30.109Z,12.05
2023-04-30T23:52:57.118Z,11.85
2023-04-30T23:55:23.752Z,11.94
2023-04-30T23:57:50.600Z,11.74
